Time;durP1;ratioP1;P1;durP2;ratioP2;P2;SDS_P1;SDS_P2;PMS_P1;PMS_P2;Temp;Humidity;BMP_temperature;BMP_pressure;BME280_temperature;BME280_humidity;BME280_pressure;Samples;Min_cycle;Max_cycle;Signal;HPM_P1;HPM_P2
2021/07/07 00:00:00;;;;;;;;;;;;;;;;;;5119384;27;19919;-59
2021/07/07 00:02:25;;;;;;;;;;;;;;;;;;5120903;27;19912;-59
2021/07/07 00:04:52;;;;;;;;;;;;;;;;;;5121407;27;19923;-59
2021/07/07 00:07:18;;;;;;;;;;;;;;;;;;5115502;27;20263;-59
2021/07/07 00:09:44;;;;;;;;;;;;;;;;;;5112728;27;19999;-59
2021/07/07 00:12:10;;;;;;;;;;;;;;;;;;5105772;27;19908;-59
2021/07/07 00:14:36;;;;;;;;;;;;;;;;;;5116578;27;19953;-59
2021/07/07 00:17:01;;;;;;;;;;;;;;;;;;5097051;28;19912;-59
2021/07/07 00:19:28;;;;;;;;;;;;;;;;;;5107875;27;19911;-59
2021/07/07 00:21:58;;;;;;;;;;;;;;;;;;5110387;27;20344;-59
2021/07/07 00:24:24;;;;;;;;;;;;;;;;;;5114136;27;19914;-59
2021/07/07 00:26:50;;;;;;;;;;;;;;;;;;5117344;27;19908;-59
2021/07/07 00:29:16;;;;;;;;;;;;;;;;;;5121320;27;19919;-59
2021/07/07 00:31:41;;;;;;;;;;;;;;;;;;5116267;27;20320;-59
2021/07/07 00:34:07;;;;;;;;;;;;;;;;;;5115421;27;19954;-60
2021/07/07 00:36:33;;;;;;;;;;;;;;;;;;5110576;28;19924;-59
2021/07/07 00:38:59;;;;;;;;;;;;;;;;;;5117623;27;19919;-59
2021/07/07 00:41:25;;;;;;;;;;;;;;;;;;5112545;27;19963;-59
2021/07/07 00:43:51;;;;;;;;;;;;;;;;;;5111654;27;19981;-59
2021/07/07 00:46:17;;;;;;;;;;;;;;;;;;5114911;27;19912;-59
2021/07/07 00:48:43;;;;;;;;;;;;;;;;;;5109614;27;20259;-59
2021/07/07 00:51:09;;;;;;;;;;;;;;;;;;5115410;27;19964;-59
2021/07/07 00:53:35;;;;;;;;;;;;;;;;;;5115662;27;19999;-59
2021/07/07 00:56:01;;;;;;;;;;;;;;;;;;5114702;27;19911;-59
2021/07/07 00:58:27;;;;;;;;;;;;;;;;;;5116476;27;20327;-59
2021/07/07 01:00:53;;;;;;;;;;;;;;;;;;5091679;28;20298;-59
2021/07/07 01:03:19;;;;;;;;;;;;;;;;;;5102759;28;19907;-59
2021/07/07 01:05:45;;;;;;;;;;;;;;;;;;5115391;27;19961;-59
2021/07/07 01:08:10;;;;;;;;;;;;;;;;;;5098670;27;20556;-59
2021/07/07 01:10:37;;;;;;;;;;;;;;;;;;5114692;27;19920;-59
2021/07/07 01:13:03;;;;;;;;;;;;;;;;;;5114186;27;19994;-60
2021/07/07 01:15:28;;;;;;;;;;;;;;;;;;5112555;28;19966;-60
2021/07/07 01:17:54;;;;;;;;;;;;;;;;;;5110047;27;20055;-59
2021/07/07 01:20:20;;;;;;;;;;;;;;;;;;5110221;27;20007;-59
2021/07/07 01:22:46;;;;;;;;;;;;;;;;;;5114438;27;20270;-59
2021/07/07 01:25:12;;;;;;;;;;;;;;;;;;5114775;27;20330;-59
2021/07/07 01:27:38;;;;;;;;;;;;;;;;;;5109110;28;19959;-60
2021/07/07 01:30:04;;;;;;;;;;;;;;;;;;5132409;27;19914;-59
2021/07/07 01:32:30;;;;;;;;;;;;;;;;;;5114405;27;19972;-60
2021/07/07 01:34:56;;;;;;;;;;;;;;;;;;5114509;27;20367;-60
2021/07/07 01:37:22;;;;;;;;;;;;;;;;;;5106286;27;20027;-59
2021/07/07 01:39:48;;;;;;;;;;;;;;;;;;5096061;27;20360;-59
2021/07/07 01:42:14;;;;;;;;;;;;;;;;;;5095982;28;19915;-60
2021/07/07 01:44:40;;;;;;;;;;;;;;;;;;5120238;27;19914;-59
2021/07/07 01:47:07;;;;;;;;;;;;;;;;;;5115011;27;19947;-59
2021/07/07 01:49:33;;;;;;;;;;;;;;;;;;5111387;27;19926;-59
2021/07/07 01:51:59;;;;;;;;;;;;;;;;;;5094394;27;19915;-59
2021/07/07 01:54:24;;;;;;;;;;;;;;;;;;5112373;27;19908;-60
2021/07/07 01:56:50;;;;;;;;;;;;;;;;;;5115144;27;20264;-59
2021/07/07 01:59:16;;;;;;;;;;;;;;;;;;5112995;27;19911;-59
2021/07/07 02:01:42;;;;;;;;;;;;;;;;;;5113955;27;19912;-59
2021/07/07 02:04:08;;;;;;;;;;;;;;;;;;5113365;27;19955;-59
2021/07/07 02:06:35;;;;;;;;;;;;;;;;;;5109524;28;20328;-60
2021/07/07 02:09:01;;;;;;;;;;;;;;;;;;5111117;27;19915;-59
2021/07/07 02:11:27;;;;;;;;;;;;;;;;;;5114026;27;19991;-59
2021/07/07 02:13:52;;;;;;;;;;;;;;;;;;5114090;27;20390;-59
2021/07/07 02:16:18;;;;;;;;;;;;;;;;;;5113850;27;19912;-59
2021/07/07 02:18:44;;;;;;;;;;;;;;;;;;5105594;27;19964;-59
2021/07/07 02:21:10;;;;;;;;;;;;;;;;;;5115554;27;19908;-59
2021/07/07 02:23:36;;;;;;;;;;;;;;;;;;5103157;27;19911;-59
2021/07/07 02:26:02;;;;;;;;;;;;;;;;;;5113687;27;19912;-59
2021/07/07 02:28:28;;;;;;;;;;;;;;;;;;5114198;27;19942;-59
2021/07/07 02:30:54;;;;;;;;;;;;;;;;;;5110807;27;19969;-59
2021/07/07 02:33:20;;;;;;;;;;;;;;;;;;5113017;27;20007;-59
2021/07/07 02:35:46;;;;;;;;;;;;;;;;;;5114696;27;19907;-59
2021/07/07 02:38:11;;;;;;;;;;;;;;;;;;5104439;28;20365;-59
2021/07/07 02:40:37;;;;;;;;;;;;;;;;;;5105988;28;19912;-59
2021/07/07 02:43:05;;;;;;;;;;;;;;;;;;5112225;27;19911;-59
2021/07/07 02:45:31;;;;;;;;;;;;;;;;;;5110402;28;20318;-59
2021/07/07 02:47:57;;;;;;;;;;;;;;;;;;5109164;28;19916;-59
2021/07/07 02:50:22;;;;;;;;;;;;;;;;;;5112239;28;19919;-59
2021/07/07 02:52:48;;;;;;;;;;;;;;;;;;5113783;28;19934;-59
2021/07/07 02:55:14;;;;;;;;;;;;;;;;;;5113239;28;19922;-59
2021/07/07 03:00:25;;;;;;;;;;;;;;;;;;5112318;28;19961;-59
2021/07/07 03:02:51;;;;;;;;;;;;;;;;;;5114793;28;20011;-59
2021/07/07 03:05:17;;;;;;;;;;;;;;;;;;5112859;28;19966;-59
2021/07/07 03:07:43;;;;;;;;;;;;;;;;;;5110922;27;19962;-59
2021/07/07 03:10:09;;;;;;;;;;;;;;;;;;5105289;27;19970;-59
2021/07/07 03:12:34;;;;;;;;;;;;;;;;;;5113152;28;19938;-59
2021/07/07 03:15:00;;;;;;;;;;;;;;;;;;5120611;27;19915;-59
2021/07/07 03:17:26;;;;;;;;;;;;;;;;;;5114733;27;19919;-59
2021/07/07 03:19:52;;;;;;;;;;;;;;;;;;5110832;27;20324;-59
2021/07/07 03:22:19;;;;;;;;;;;;;;;;;;5116536;27;19912;-59
2021/07/07 03:24:45;;;;;;;;;;;;;;;;;;5113429;27;19923;-59
2021/07/07 03:27:10;;;;;;;;;;;;;;;;;;5118911;27;19907;-59
2021/07/07 03:29:36;;;;;;;;;;;;;;;;;;5125679;27;19961;-58
2021/07/07 03:32:02;;;;;;;;;;;;;;;;;;5121208;27;19912;-58
2021/07/07 03:34:28;;;;;;;;;;;;;;;;;;5116844;27;20272;-59
2021/07/07 03:36:54;;;;;;;;;;;;;;;;;;5114464;27;19968;-58
2021/07/07 03:39:20;;;;;;;;;;;;;;;;;;5100042;27;19912;-58
2021/07/07 03:41:46;;;;;;;;;;;;;;;;;;5117949;27;19969;-58
2021/07/07 03:44:12;;;;;;;;;;;;;;;;;;5116069;27;19919;-58
2021/07/07 03:46:37;;;;;;;;;;;;;;;;;;5116528;27;19958;-58
2021/07/07 03:49:03;;;;;;;;;;;;;;;;;;5107528;27;19923;-59
2021/07/07 03:51:29;;;;;;;;;;;;;;;;;;5113941;27;19912;-59
2021/07/07 03:53:55;;;;;;;;;;;;;;;;;;5101397;28;19914;-59
2021/07/07 03:56:21;;;;;;;;;;;;;;;;;;5116523;27;19919;-52
2021/07/07 03:58:47;;;;;;;;;;;;;;;;;;5116544;27;19919;-52
2021/07/07 04:01:13;;;;;;;;;;;;;;;;;;5115917;27;19997;-50
2021/07/07 04:03:39;;;;;;;;;;;;;;;;;;5117132;27;20278;-53
2021/07/07 04:06:04;;;;;;;;;;;;;;;;;;5126909;27;19908;-48
2021/07/07 04:08:30;;;;;;;;;;;;;;;;;;5116931;27;20007;-51
2021/07/07 04:10:56;;;;;;;;;;;;;;;;;;5124098;27;19927;-52
2021/07/07 04:13:24;;;;;;;;;;;;;;;;;;5122775;27;19920;-52
2021/07/07 04:15:51;;;;;;;;;;;;;;;;;;5121450;27;20325;-51
2021/07/07 04:18:17;;;;;;;;;;;;;;;;;;5108344;27;19962;-52
2021/07/07 04:20:43;;;;;;;;;;;;;;;;;;5116565;27;19908;-59
2021/07/07 04:23:09;;;;;;;;;;;;;;;;;;5115972;27;20310;-59
2021/07/07 04:25:35;;;;;;;;;;;;;;;;;;5115825;27;20007;-59
2021/07/07 04:28:01;;;;;;;;;;;;;;;;;;5114477;27;19968;-59
2021/07/07 04:30:27;;;;;;;;;;;;;;;;;;5113421;27;19919;-59
2021/07/07 04:32:53;;;;;;;;;;;;;;;;;;5117531;27;19908;-59
2021/07/07 04:35:19;;;;;;;;;;;;;;;;;;5114876;27;20298;-59
2021/07/07 04:37:45;;;;;;;;;;;;;;;;;;5105961;27;19956;-59
2021/07/07 04:40:10;;;;;;;;;;;;;;;;;;5106434;27;20036;-59
2021/07/07 04:42:36;;;;;;;;;;;;;;;;;;5110624;28;19923;-59
2021/07/07 04:45:02;;;;;;;;;;;;;;;;;;5118454;27;19934;-59
2021/07/07 04:47:28;;;;;;;;;;;;;;;;;;5112550;27;19996;-60
2021/07/07 04:49:54;;;;;;;;;;;;;;;;;;5110711;27;19956;-59
2021/07/07 04:52:20;;;;;;;;;;;;;;;;;;5114555;27;19963;-59
2021/07/07 04:54:46;;;;;;;;;;;;;;;;;;5111898;27;19912;-59
2021/07/07 04:57:12;;;;;;;;;;;;;;;;;;5116551;27;19911;-59
2021/07/07 04:59:37;;;;;;;;;;;;;;;;;;5116473;27;19919;-59
2021/07/07 05:02:03;;;;;;;;;;;;;;;;;;5114507;27;20355;-59
2021/07/07 05:04:29;;;;;;;;;;;;;;;;;;5114159;27;19973;-59
2021/07/07 05:06:55;;;;;;;;;;;;;;;;;;5112507;27;20286;-59
2021/07/07 05:09:21;;;;;;;;;;;;;;;;;;5098478;27;19973;-59
2021/07/07 05:11:47;;;;;;;;;;;;;;;;;;5115659;27;19923;-59
2021/07/07 05:14:13;;;;;;;;;;;;;;;;;;5113765;27;19926;-59
2021/07/07 05:16:39;;;;;;;;;;;;;;;;;;5114445;27;19965;-59
2021/07/07 05:19:05;;;;;;;;;;;;;;;;;;5106129;27;19923;-59
2021/07/07 05:21:31;;;;;;;;;;;;;;;;;;5111426;27;19934;-60
2021/07/07 05:23:57;;;;;;;;;;;;;;;;;;5116513;27;20371;-61
2021/07/07 05:26:23;;;;;;;;;;;;;;;;;;5114307;27;19911;-60
2021/07/07 05:28:49;;;;;;;;;;;;;;;;;;5114479;27;20394;-59
2021/07/07 05:31:15;;;;;;;;;;;;;;;;;;5113474;27;19911;-59
2021/07/07 05:33:41;;;;;;;;;;;;;;;;;;5110026;28;19919;-60
2021/07/07 05:36:08;;;;;;;;;;;;;;;;;;5098162;28;19918;-59
2021/07/07 05:38:34;;;;;;;;;;;;;;;;;;5103964;27;19961;-59
2021/07/07 05:40:59;;;;;;;;;;;;;;;;;;5109217;27;19916;-60
2021/07/07 05:43:25;;;;;;;;;;;;;;;;;;5095583;27;19996;-59
2021/07/07 05:45:51;;;;;;;;;;;;;;;;;;5110555;27;19923;-59
2021/07/07 05:48:17;;;;;;;;;;;;;;;;;;5106841;27;20280;-59
2021/07/07 05:50:43;;;;;;;;;;;;;;;;;;5127811;27;19918;-60
2021/07/07 05:53:09;;;;;;;;;;;;;;;;;;5120144;27;19948;-59
2021/07/07 05:55:35;;;;;;;;;;;;;;;;;;5112318;27;20412;-59
2021/07/07 05:58:01;;;;;;;;;;;;;;;;;;5113322;27;19912;-60
2021/07/07 06:00:27;;;;;;;;;;;;;;;;;;5112127;28;20973;-62
2021/07/07 06:02:53;;;;;;;;;;;;;;;;;;5115498;27;20032;-59
2021/07/07 06:05:19;;;;;;;;;;;;;;;;;;5113350;27;20139;-59
2021/07/07 06:07:44;;;;;;;;;;;;;;;;;;5108592;27;19959;-62
2021/07/07 06:10:10;;;;;;;;;;;;;;;;;;5102490;27;20018;-62
2021/07/07 06:12:36;;;;;;;;;;;;;;;;;;5102873;28;20435;-62
2021/07/07 06:15:02;;;;;;;;;;;;;;;;;;5113460;27;20365;-62
2021/07/07 06:17:28;;;;;;;;;;;;;;;;;;5108716;27;19912;-61
2021/07/07 06:19:54;;;;;;;;;;;;;;;;;;5108688;27;19951;-62
2021/07/07 06:22:20;;;;;;;;;;;;;;;;;;5113441;27;19929;-60
2021/07/07 06:24:46;;;;;;;;;;;;;;;;;;5091957;27;19912;-60
2021/07/07 06:27:12;;;;;;;;;;;;;;;;;;5114191;27;19914;-60
2021/07/07 06:29:37;;;;;;;;;;;;;;;;;;5109951;28;19951;-62
2021/07/07 06:32:03;;;;;;;;;;;;;;;;;;5111469;27;19912;-60
2021/07/07 06:34:29;;;;;;;;;;;;;;;;;;5111905;27;20394;-60
2021/07/07 06:36:55;;;;;;;;;;;;;;;;;;5107636;27;19927;-60
2021/07/07 06:39:21;;;;;;;;;;;;;;;;;;5096152;27;19919;-60
2021/07/07 06:41:47;;;;;;;;;;;;;;;;;;5093730;28;20275;-60
2021/07/07 06:44:13;;;;;;;;;;;;;;;;;;5111210;27;19969;-60
2021/07/07 06:46:39;;;;;;;;;;;;;;;;;;5112460;28;20433;-59
2021/07/07 06:49:05;;;;;;;;;;;;;;;;;;5099109;28;19926;-62
2021/07/07 06:51:30;;;;;;;;;;;;;;;;;;5110159;28;19920;-59
2021/07/07 06:53:56;;;;;;;;;;;;;;;;;;5123591;28;19939;-59
2021/07/07 06:56:22;;;;;;;;;;;;;;;;;;5114135;28;19961;-61
2021/07/07 06:58:48;;;;;;;;;;;;;;;;;;5111861;28;19912;-60
2021/07/07 07:01:14;;;;;;;;;;;;;;;;;;5109019;28;20333;-60
2021/07/07 07:03:40;;;;;;;;;;;;;;;;;;5108338;28;20435;-60
2021/07/07 07:06:06;;;;;;;;;;;;;;;;;;5114876;28;19908;-60
2021/07/07 07:08:32;;;;;;;;;;;;;;;;;;5100307;28;20010;-60
2021/07/07 07:10:58;;;;;;;;;;;;;;;;;;5108082;28;19959;-60
2021/07/07 07:13:24;;;;;;;;;;;;;;;;;;5112921;28;19919;-60
2021/07/07 07:15:50;;;;;;;;;;;;;;;;;;5109913;28;19924;-60
2021/07/07 07:18:16;;;;;;;;;;;;;;;;;;5107790;28;19915;-60
2021/07/07 07:20:42;;;;;;;;;;;;;;;;;;5112850;28;19908;-60
2021/07/07 07:23:09;;;;;;;;;;;;;;;;;;5109245;28;20080;-59
2021/07/07 07:25:34;;;;;;;;;;;;;;;;;;5112988;28;20425;-60
2021/07/07 07:28:00;;;;;;;;;;;;;;;;;;5112272;28;19920;-60
2021/07/07 07:30:29;;;;;;;;;;;;;;;;;;5110690;28;19981;-60
2021/07/07 07:32:55;;;;;;;;;;;;;;;;;;5119015;28;20003;-60
2021/07/07 07:35:21;;;;;;;;;;;;;;;;;;5115304;28;19998;-60
2021/07/07 07:37:49;;;;;;;;;;;;;;;;;;5115076;28;19911;-60
2021/07/07 07:40:21;;;;;;;;;;;;;;;;;;5121141;28;19995;-60
2021/07/07 07:42:47;;;;;;;;;;;;;;;;;;5115680;28;20375;-60
2021/07/07 07:45:13;;;;;;;;;;;;;;;;;;5121473;28;19919;-60
2021/07/07 07:47:38;;;;;;;;;;;;;;;;;;5119772;28;20032;-60
2021/07/07 07:50:04;;;;;;;;;;;;;;;;;;5117108;28;20423;-60
2021/07/07 07:52:30;;;;;;;;;;;;;;;;;;5119752;27;19920;-60
2021/07/07 07:54:56;;;;;;;;;;;;;;;;;;5123396;27;19916;-61
2021/07/07 07:57:22;;;;;;;;;;;;;;;;;;5115474;27;19912;-60
2021/07/07 07:59:48;;;;;;;;;;;;;;;;;;5117004;27;20359;-60
2021/07/07 08:02:14;;;;;;;;;;;;;;;;;;5115665;27;19964;-61
2021/07/07 08:04:40;;;;;;;;;;;;;;;;;;5117348;27;19922;-60
2021/07/07 08:07:06;;;;;;;;;;;;;;;;;;5123962;27;19916;-60
2021/07/07 08:09:32;;;;;;;;;;;;;;;;;;5122518;27;19966;-60
2021/07/07 08:11:58;;;;;;;;;;;;;;;;;;5128059;27;19916;-60
2021/07/07 08:14:24;;;;;;;;;;;;;;;;;;5125272;27;20313;-60
2021/07/07 08:16:50;;;;;;;;;;;;;;;;;;5125100;27;19916;-61
2021/07/07 08:19:16;;;;;;;;;;;;;;;;;;5125144;27;19957;-60
2021/07/07 08:21:42;;;;;;;;;;;;;;;;;;5122673;27;19912;-60
2021/07/07 08:24:08;;;;;;;;;;;;;;;;;;5126979;27;20021;-60
2021/07/07 08:26:34;;;;;;;;;;;;;;;;;;5130009;27;20495;-60
2021/07/07 08:29:01;;;;;;;;;;;;;;;;;;5122678;27;19931;-60
2021/07/07 08:31:26;;;;;;;;;;;;;;;;;;5123587;27;19934;-60
2021/07/07 08:33:54;;;;;;;;;;;;;;;;;;5123150;27;20335;-60
2021/07/07 08:36:22;;;;;;;;;;;;;;;;;;5096903;28;19912;-60
2021/07/07 08:38:48;;;;;;;;;;;;;;;;;;5102777;27;19916;-60
2021/07/07 08:41:14;;;;;;;;;;;;;;;;;;5116286;27;20286;-60
2021/07/07 08:43:40;;;;;;;;;;;;;;;;;;5124929;27;19922;-60
2021/07/07 08:46:06;;;;;;;;;;;;;;;;;;5122083;27;19997;-60
2021/07/07 08:48:32;;;;;;;;;;;;;;;;;;5118396;27;19927;-60
2021/07/07 08:50:59;;;;;;;;;;;;;;;;;;5127445;27;20427;-60
2021/07/07 08:53:26;;;;;;;;;;;;;;;;;;5128229;27;20322;-60
2021/07/07 08:55:53;;;;;;;;;;;;;;;;;;5120600;27;19912;-60
2021/07/07 08:58:19;;;;;;;;;;;;;;;;;;5097824;27;20349;-60
2021/07/07 09:00:45;;;;;;;;;;;;;;;;;;5111444;27;19987;-60
2021/07/07 09:03:11;;;;;;;;;;;;;;;;;;5116917;27;19912;-60
2021/07/07 09:05:37;;;;;;;;;;;;;;;;;;5114485;27;19908;-60
2021/07/07 09:08:03;;;;;;;;;;;;;;;;;;5107375;27;19923;-60
2021/07/07 09:10:29;;;;;;;;;;;;;;;;;;5106026;27;19920;-60
2021/07/07 09:12:55;;;;;;;;;;;;;;;;;;5113002;27;19918;-60
2021/07/07 09:15:21;;;;;;;;;;;;;;;;;;5113672;27;19908;-60
2021/07/07 09:17:50;;;;;;;;;;;;;;;;;;5113031;27;19908;-60
2021/07/07 09:20:16;;;;;;;;;;;;;;;;;;5118732;27;19912;-60
2021/07/07 09:22:42;;;;;;;;;;;;;;;;;;5112592;27;19934;-60
2021/07/07 09:25:08;;;;;;;;;;;;;;;;;;5115908;27;20383;-60
2021/07/07 09:27:33;;;;;;;;;;;;;;;;;;5089519;28;19912;-60
2021/07/07 09:29:59;;;;;;;;;;;;;;;;;;5116545;27;20359;-60
2021/07/07 09:32:29;;;;;;;;;;;;;;;;;;5113223;27;19916;-60
2021/07/07 09:34:55;;;;;;;;;;;;;;;;;;5112671;27;20006;-60
2021/07/07 09:37:21;;;;;;;;;;;;;;;;;;5109665;27;20006;-60
2021/07/07 09:39:47;;;;;;;;;;;;;;;;;;5106884;27;19947;-61
2021/07/07 09:42:13;;;;;;;;;;;;;;;;;;5129491;27;19912;-61
2021/07/07 09:44:39;;;;;;;;;;;;;;;;;;5113860;27;19911;-60
2021/07/07 09:47:05;;;;;;;;;;;;;;;;;;5111791;27;19995;-60
2021/07/07 09:49:31;;;;;;;;;;;;;;;;;;5103411;27;19928;-60
2021/07/07 09:51:57;;;;;;;;;;;;;;;;;;5106864;27;19927;-60
2021/07/07 09:54:23;;;;;;;;;;;;;;;;;;5122200;27;19915;-60
2021/07/07 09:56:49;;;;;;;;;;;;;;;;;;5123464;27;19919;-60
2021/07/07 09:59:15;;;;;;;;;;;;;;;;;;5121986;27;19912;-60
2021/07/07 10:01:40;;;;;;;;;;;;;;;;;;5122210;27;19915;-60
2021/07/07 10:04:10;;;;;;;;;;;;;;;;;;5107053;27;19951;-60
2021/07/07 10:06:36;;;;;;;;;;;;;;;;;;5103387;27;19911;-60
2021/07/07 10:09:02;;;;;;;;;;;;;;;;;;5101499;27;19930;-60
2021/07/07 10:11:28;;;;;;;;;;;;;;;;;;5112041;27;19964;-60
2021/07/07 10:13:54;;;;;;;;;;;;;;;;;;5113373;27;19935;-60
2021/07/07 10:16:20;;;;;;;;;;;;;;;;;;5111335;27;19915;-60
2021/07/07 10:18:46;;;;;;;;;;;;;;;;;;5092174;27;19912;-60
2021/07/07 10:21:11;;;;;;;;;;;;;;;;;;5115170;27;19908;-60
2021/07/07 10:23:39;;;;;;;;;;;;;;;;;;5119866;27;19919;-60
2021/07/07 10:26:05;;;;;;;;;;;;;;;;;;5123159;27;20006;-60
2021/07/07 10:28:31;;;;;;;;;;;;;;;;;;5121654;27;20546;-60
2021/07/07 10:30:57;;;;;;;;;;;;;;;;;;5109120;27;19919;-61
2021/07/07 10:33:23;;;;;;;;;;;;;;;;;;5125323;27;19912;-60
2021/07/07 10:35:49;;;;;;;;;;;;;;;;;;5122159;27;20268;-61
2021/07/07 10:38:15;;;;;;;;;;;;;;;;;;5118584;27;19908;-60
2021/07/07 10:40:47;;;;;;;;;;;;;;;;;;5121299;27;20378;-60
2021/07/07 10:43:13;;;;;;;;;;;;;;;;;;5108604;27;20266;-60
2021/07/07 10:45:39;;;;;;;;;;;;;;;;;;5119544;27;19919;-60
2021/07/07 10:48:05;;;;;;;;;;;;;;;;;;5118077;27;19916;-60
2021/07/07 10:50:31;;;;;;;;;;;;;;;;;;5118240;28;20425;-60
2021/07/07 10:52:57;;;;;;;;;;;;;;;;;;5118871;28;19966;-60
2021/07/07 10:55:24;;;;;;;;;;;;;;;;;;5120797;28;20377;-60
2021/07/07 10:57:50;;;;;;;;;;;;;;;;;;5118798;28;19915;-60
2021/07/07 11:00:16;;;;;;;;;;;;;;;;;;5111409;28;19958;-60
2021/07/07 11:02:42;;;;;;;;;;;;;;;;;;5120907;28;19963;-61
2021/07/07 11:05:08;;;;;;;;;;;;;;;;;;5120583;28;20307;-60
2021/07/07 11:07:34;;;;;;;;;;;;;;;;;;5113478;28;19912;-60
2021/07/07 11:10:00;;;;;;;;;;;;;;;;;;5110003;28;19955;-60
2021/07/07 11:12:26;;;;;;;;;;;;;;;;;;5112330;28;19955;-60
2021/07/07 11:14:52;;;;;;;;;;;;;;;;;;5114691;28;19998;-60
2021/07/07 11:17:18;;;;;;;;;;;;;;;;;;5109255;28;20549;-60
2021/07/07 11:19:44;;;;;;;;;;;;;;;;;;5101540;28;19916;-64
2021/07/07 11:22:10;;;;;;;;;;;;;;;;;;5089453;28;20405;-64
2021/07/07 11:24:38;;;;;;;;;;;;;;;;;;5094258;28;20134;-65
2021/07/07 11:27:03;;;;;;;;;;;;;;;;;;5114086;28;19990;-65
2021/07/07 11:29:29;;;;;;;;;;;;;;;;;;5116471;27;19973;-65
2021/07/07 11:31:55;;;;;;;;;;;;;;;;;;5115849;27;19912;-65
2021/07/07 11:34:21;;;;;;;;;;;;;;;;;;5114423;27;20332;-65
2021/07/07 11:36:47;;;;;;;;;;;;;;;;;;5103233;27;19923;-64
2021/07/07 11:39:13;;;;;;;;;;;;;;;;;;5101382;27;19912;-64
2021/07/07 11:41:41;;;;;;;;;;;;;;;;;;5116897;27;19958;-64
2021/07/07 11:44:07;;;;;;;;;;;;;;;;;;5116245;27;19958;-64
2021/07/07 11:46:33;;;;;;;;;;;;;;;;;;5104337;27;20067;-64
2021/07/07 11:48:59;;;;;;;;;;;;;;;;;;5105570;27;19928;-64
2021/07/07 11:51:31;;;;;;;;;;;;;;;;;;5115412;27;19922;-64
2021/07/07 11:53:58;;;;;;;;;;;;;;;;;;5118943;27;19908;-64
2021/07/07 11:56:24;;;;;;;;;;;;;;;;;;5116241;27;20002;-64
2021/07/07 11:58:50;;;;;;;;;;;;;;;;;;5116996;27;20002;-64
2021/07/07 12:01:16;;;;;;;;;;;;;;;;;;5115895;27;20426;-64
2021/07/07 12:03:42;;;;;;;;;;;;;;;;;;5111294;28;19912;-64
2021/07/07 12:06:07;;;;;;;;;;;;;;;;;;5118935;27;20048;-64
2021/07/07 12:08:34;;;;;;;;;;;;;;;;;;5106138;27;20003;-64
2021/07/07 12:11:00;;;;;;;;;;;;;;;;;;5111170;27;20350;-64
2021/07/07 12:13:27;;;;;;;;;;;;;;;;;;5115832;27;20002;-64
2021/07/07 12:15:53;;;;;;;;;;;;;;;;;;5113044;27;19966;-64
2021/07/07 12:18:19;;;;;;;;;;;;;;;;;;5107897;27;20283;-65
2021/07/07 12:20:45;;;;;;;;;;;;;;;;;;5116805;27;19908;-64
2021/07/07 12:23:11;;;;;;;;;;;;;;;;;;5115690;27;20331;-65
2021/07/07 12:25:37;;;;;;;;;;;;;;;;;;5115708;27;19946;-65
2021/07/07 12:28:03;;;;;;;;;;;;;;;;;;5114581;27;20396;-64
2021/07/07 12:30:30;;;;;;;;;;;;;;;;;;5113516;27;19920;-64
2021/07/07 12:32:56;;;;;;;;;;;;;;;;;;5117886;27;19908;-65
2021/07/07 12:35:24;;;;;;;;;;;;;;;;;;5115362;27;19969;-64
2021/07/07 12:37:50;;;;;;;;;;;;;;;;;;5110029;27;20286;-64
2021/07/07 12:40:21;;;;;;;;;;;;;;;;;;5102630;27;20274;-64
2021/07/07 12:42:51;;;;;;;;;;;;;;;;;;5110450;27;19912;-64
2021/07/07 12:45:17;;;;;;;;;;;;;;;;;;5114769;27;19907;-65
2021/07/07 12:47:44;;;;;;;;;;;;;;;;;;5115075;27;20347;-65
2021/07/07 12:50:09;;;;;;;;;;;;;;;;;;5114122;27;20248;-64
2021/07/07 12:52:35;;;;;;;;;;;;;;;;;;5113570;27;19918;-65
2021/07/07 12:55:01;;;;;;;;;;;;;;;;;;5112566;27;19943;-65
2021/07/07 12:57:27;;;;;;;;;;;;;;;;;;5112245;27;20020;-64
2021/07/07 12:59:53;;;;;;;;;;;;;;;;;;5116180;27;19915;-65
2021/07/07 13:02:19;;;;;;;;;;;;;;;;;;5113928;27;19912;-64
2021/07/07 13:04:45;;;;;;;;;;;;;;;;;;5114006;27;19919;-64
2021/07/07 13:07:13;;;;;;;;;;;;;;;;;;5113866;27;19912;-64
2021/07/07 13:09:39;;;;;;;;;;;;;;;;;;5109378;28;19926;-64
2021/07/07 13:12:05;;;;;;;;;;;;;;;;;;5117149;27;19915;-64
2021/07/07 13:14:31;;;;;;;;;;;;;;;;;;5113420;27;20366;-64
2021/07/07 13:16:57;;;;;;;;;;;;;;;;;;5114013;27;19911;-64
2021/07/07 13:19:23;;;;;;;;;;;;;;;;;;5114029;27;19915;-64
2021/07/07 13:21:49;;;;;;;;;;;;;;;;;;5111692;27;19981;-64
2021/07/07 13:24:15;;;;;;;;;;;;;;;;;;5115608;27;19915;-64
2021/07/07 13:26:41;;;;;;;;;;;;;;;;;;5116150;27;19922;-64
2021/07/07 13:29:07;;;;;;;;;;;;;;;;;;5114097;27;20018;-64
2021/07/07 13:31:32;;;;;;;;;;;;;;;;;;5114465;27;19955;-64
2021/07/07 13:33:58;;;;;;;;;;;;;;;;;;5112710;27;20021;-64
2021/07/07 13:36:24;;;;;;;;;;;;;;;;;;5113225;27;19915;-64
2021/07/07 13:38:50;;;;;;;;;;;;;;;;;;5115472;27;20294;-64
2021/07/07 13:41:16;;;;;;;;;;;;;;;;;;5113446;27;19912;-66
2021/07/07 13:43:43;;;;;;;;;;;;;;;;;;5095980;28;19918;-65
2021/07/07 13:46:09;;;;;;;;;;;;;;;;;;5114160;27;19911;-65
2021/07/07 13:48:35;;;;;;;;;;;;;;;;;;5109712;27;20003;-65
2021/07/07 13:51:01;;;;;;;;;;;;;;;;;;5116723;27;19955;-66
2021/07/07 13:53:27;;;;;;;;;;;;;;;;;;5114093;27;20434;-65
2021/07/07 13:55:53;;;;;;;;;;;;;;;;;;5113679;27;19912;-66
2021/07/07 13:58:20;;;;;;;;;;;;;;;;;;5113684;27;19965;-65
2021/07/07 14:00:46;;;;;;;;;;;;;;;;;;5110276;27;20409;-66
2021/07/07 14:03:12;;;;;;;;;;;;;;;;;;5115689;27;19939;-65
2021/07/07 14:05:38;;;;;;;;;;;;;;;;;;5114483;27;19931;-65
2021/07/07 14:08:04;;;;;;;;;;;;;;;;;;5113248;27;19941;-65
2021/07/07 14:10:30;;;;;;;;;;;;;;;;;;5112755;27;20346;-65
2021/07/07 14:12:55;;;;;;;;;;;;;;;;;;5111726;27;19927;-66
2021/07/07 14:15:21;;;;;;;;;;;;;;;;;;5113611;27;20328;-66
2021/07/07 14:17:47;;;;;;;;;;;;;;;;;;5114146;27;19919;-66
2021/07/07 14:20:13;;;;;;;;;;;;;;;;;;5113236;27;19912;-66
2021/07/07 14:22:41;;;;;;;;;;;;;;;;;;5113040;27;19912;-66
2021/07/07 14:25:07;;;;;;;;;;;;;;;;;;5112959;27;19932;-65
2021/07/07 14:27:33;;;;;;;;;;;;;;;;;;5110620;27;20201;-65
2021/07/07 14:29:59;;;;;;;;;;;;;;;;;;5115703;27;20283;-64
2021/07/07 14:32:24;;;;;;;;;;;;;;;;;;5113356;27;19908;-65
2021/07/07 14:34:50;;;;;;;;;;;;;;;;;;5113303;27;20434;-65
2021/07/07 14:37:16;;;;;;;;;;;;;;;;;;5113351;27;19923;-65
2021/07/07 14:39:42;;;;;;;;;;;;;;;;;;5108424;28;19918;-65
2021/07/07 14:42:08;;;;;;;;;;;;;;;;;;5116569;27;19923;-65
2021/07/07 14:44:34;;;;;;;;;;;;;;;;;;5114754;27;19912;-65
2021/07/07 14:47:00;;;;;;;;;;;;;;;;;;5113308;27;19912;-65
2021/07/07 14:49:26;;;;;;;;;;;;;;;;;;5112708;27;19923;-65
2021/07/07 14:51:52;;;;;;;;;;;;;;;;;;5109967;28;20003;-65
2021/07/07 14:54:17;;;;;;;;;;;;;;;;;;5112340;28;19912;-65
2021/07/07 14:56:43;;;;;;;;;;;;;;;;;;5109552;28;19934;-65
2021/07/07 14:59:09;;;;;;;;;;;;;;;;;;5112867;28;19919;-65
2021/07/07 15:01:35;;;;;;;;;;;;;;;;;;5113030;28;19912;-65
2021/07/07 15:04:01;;;;;;;;;;;;;;;;;;5115055;27;19907;-65
2021/07/07 15:06:27;;;;;;;;;;;;;;;;;;5114552;27;20279;-65
2021/07/07 15:08:53;;;;;;;;;;;;;;;;;;5116965;27;19963;-65
2021/07/07 15:11:19;;;;;;;;;;;;;;;;;;5115478;27;20379;-64
2021/07/07 15:13:45;;;;;;;;;;;;;;;;;;5116581;27;19919;-65
2021/07/07 15:16:11;;;;;;;;;;;;;;;;;;5116383;27;20375;-65
2021/07/07 15:18:36;;;;;;;;;;;;;;;;;;5104235;28;20275;-64
2021/07/07 15:21:02;;;;;;;;;;;;;;;;;;5119332;27;19961;-64
2021/07/07 15:23:28;;;;;;;;;;;;;;;;;;5116926;27;20332;-64
2021/07/07 15:25:54;;;;;;;;;;;;;;;;;;5116521;27;19912;-64
2021/07/07 15:28:20;;;;;;;;;;;;;;;;;;5116551;27;20321;-64
2021/07/07 15:30:46;;;;;;;;;;;;;;;;;;5112650;27;20284;-64
2021/07/07 15:33:12;;;;;;;;;;;;;;;;;;5118758;27;19916;-65
2021/07/07 15:35:38;;;;;;;;;;;;;;;;;;5117329;27;19991;-64
2021/07/07 15:38:04;;;;;;;;;;;;;;;;;;5116250;27;20312;-64
2021/07/07 15:40:30;;;;;;;;;;;;;;;;;;5116075;27;20261;-64
2021/07/07 15:42:56;;;;;;;;;;;;;;;;;;5114014;27;20004;-64
2021/07/07 15:45:22;;;;;;;;;;;;;;;;;;5116973;27;19912;-64
2021/07/07 15:47:48;;;;;;;;;;;;;;;;;;5123156;27;20461;-64
2021/07/07 15:50:14;;;;;;;;;;;;;;;;;;5115719;27;19931;-64
2021/07/07 15:52:40;;;;;;;;;;;;;;;;;;5116518;27;19912;-66
2021/07/07 15:55:06;;;;;;;;;;;;;;;;;;5097501;27;20274;-63
2021/07/07 15:57:38;;;;;;;;;;;;;;;;;;5113120;27;19927;-63
2021/07/07 16:00:04;;;;;;;;;;;;;;;;;;5119768;27;19947;-64
2021/07/07 16:02:30;;;;;;;;;;;;;;;;;;5097876;28;19981;-63
2021/07/07 16:04:56;;;;;;;;;;;;;;;;;;5116136;27;19919;-63
2021/07/07 16:07:22;;;;;;;;;;;;;;;;;;5115566;27;19922;-63
2021/07/07 16:09:48;;;;;;;;;;;;;;;;;;5112053;27;20003;-64
2021/07/07 16:12:16;;;;;;;;;;;;;;;;;;5117269;27;20287;-64
2021/07/07 16:14:41;;;;;;;;;;;;;;;;;;5117915;27;19911;-64
2021/07/07 16:17:08;;;;;;;;;;;;;;;;;;5114993;27;19915;-64
2021/07/07 16:19:34;;;;;;;;;;;;;;;;;;5122678;27;19965;-65
2021/07/07 16:22:00;;;;;;;;;;;;;;;;;;5122624;27;20028;-64
2021/07/07 16:24:26;;;;;;;;;;;;;;;;;;5123659;27;19937;-65
2021/07/07 16:26:52;;;;;;;;;;;;;;;;;;5109938;27;19916;-65
2021/07/07 16:29:18;;;;;;;;;;;;;;;;;;5122892;27;19966;-64
2021/07/07 16:31:44;;;;;;;;;;;;;;;;;;5123831;27;19912;-65
2021/07/07 16:34:09;;;;;;;;;;;;;;;;;;5123292;27;19947;-65
2021/07/07 16:36:35;;;;;;;;;;;;;;;;;;5120151;27;20004;-65
2021/07/07 16:39:02;;;;;;;;;;;;;;;;;;5125012;27;19935;-64